createdAt,value
2022-08-27T00:00:46.922Z,32.70
2022-08-27T00:03:14.567Z,35.33
2022-08-27T00:05:42.522Z,33.97
2022-08-27T00:08:13.012Z,33.92
2022-08-27T00:10:40.679Z,30.17
2022-08-27T00:13:07.481Z,37.83
2022-08-27T00:15:34.443Z,34.10
2022-08-27T00:18:01.316Z,27.98
2022-08-27T00:20:28.359Z,34.58
2022-08-27T00:22:55.797Z,26.40
2022-08-27T00:25:23.636Z,32.30
2022-08-27T00:27:50.959Z,28.98
2022-08-27T00:30:21.611Z,47.38
2022-08-27T00:32:48.920Z,39.78
2022-08-27T00:35:16.293Z,34.55
2022-08-27T00:37:44.158Z,28.67
2022-08-27T00:40:16.379Z,24.58
2022-08-27T00:42:45.817Z,27.90
2022-08-27T00:45:15.928Z,18.88
2022-08-27T00:47:50.648Z,19.23
2022-08-27T00:50:24.734Z,28.15
2022-08-27T00:52:59.499Z,30.90
2022-08-27T00:55:35.681Z,29.67
2022-08-27T00:58:12.943Z,17.35
2022-08-27T01:00:40.388Z,29.60
2022-08-27T01:03:07.446Z,24.73
2022-08-27T01:05:36.168Z,29.60
2022-08-27T01:08:09.663Z,27.35
2022-08-27T01:10:38.392Z,39.72
2022-08-27T01:13:09.036Z,31.70
2022-08-27T01:15:36.541Z,31.00
2022-08-27T01:18:06.535Z,19.08
2022-08-27T01:21:00.258Z,34.10
2022-08-27T01:23:50.910Z,22.30
2022-08-27T01:26:17.946Z,35.58
2022-08-27T01:28:45.810Z,20.50
2022-08-27T01:31:13.400Z,31.05
2022-08-27T01:33:41.048Z,30.83
2022-08-27T01:36:08.150Z,24.83
2022-08-27T01:38:35.385Z,31.40
2022-08-27T01:41:03.503Z,28.20
2022-08-27T01:43:31.301Z,38.80
2022-08-27T01:45:58.461Z,26.88
2022-08-27T01:48:25.283Z,41.87
2022-08-27T01:50:52.165Z,23.13
2022-08-27T01:53:22.613Z,36.42
2022-08-27T01:55:51.924Z,41.38
2022-08-27T01:58:22.314Z,31.43
2022-08-27T02:00:54.750Z,21.75
2022-08-27T02:03:24.206Z,19.10
2022-08-27T02:05:51.347Z,28.90
2022-08-27T02:08:19.344Z,19.25
2022-08-27T02:10:47.576Z,18.77
2022-08-27T02:13:15.235Z,22.52
2022-08-27T02:15:43.936Z,29.50
2022-08-27T02:18:12.045Z,29.60
2022-08-27T02:20:40.578Z,17.98
2022-08-27T02:23:08.806Z,17.23
2022-08-27T02:25:36.527Z,16.52
2022-08-27T02:28:05.318Z,25.55
2022-08-27T02:30:33.262Z,30.83
2022-08-27T02:33:02.526Z,27.53
2022-08-27T02:35:31.571Z,18.55
2022-08-27T02:37:58.531Z,15.20
2022-08-27T02:40:26.100Z,12.07
2022-08-27T02:42:53.193Z,17.08
2022-08-27T02:45:20.784Z,16.80
2022-08-27T02:47:48.454Z,17.20
2022-08-27T02:50:15.654Z,18.53
2022-08-27T02:52:45.331Z,16.42
2022-08-27T02:55:14.416Z,12.75
2022-08-27T02:57:45.069Z,19.27
2022-08-27T03:00:15.434Z,14.38
2022-08-27T03:02:42.322Z,14.77
2022-08-27T03:05:10.871Z,13.45
2022-08-27T03:07:37.818Z,15.80
2022-08-27T03:10:07.805Z,22.98
2022-08-27T03:12:36.303Z,17.40
2022-08-27T03:15:09.527Z,12.45
2022-08-27T03:17:55.489Z,14.05
2022-08-27T03:20:23.150Z,18.98
2022-08-27T03:22:49.989Z,28.70
2022-08-27T03:25:17.372Z,7.47
2022-08-27T03:27:45.307Z,9.75
2022-08-27T03:30:17.552Z,5.75
2022-08-27T03:32:44.699Z,8.68
2022-08-27T03:35:12.210Z,10.13
2022-08-27T03:37:39.814Z,13.27
2022-08-27T03:40:08.152Z,11.70
2022-08-27T03:42:36.466Z,17.00
2022-08-27T03:45:04.503Z,12.40
2022-08-27T03:47:32.250Z,9.90
2022-08-27T03:50:02.291Z,16.77
2022-08-27T03:52:29.544Z,10.10
2022-08-27T03:54:58.339Z,12.30
2022-08-27T03:57:25.703Z,10.50
2022-08-27T03:59:54.454Z,10.55
2022-08-27T04:02:21.611Z,12.90
2022-08-27T04:04:48.376Z,12.30
2022-08-27T04:07:15.098Z,13.30
2022-08-27T04:09:42.265Z,21.13
2022-08-27T04:12:09.311Z,21.20
2022-08-27T04:14:37.415Z,24.13
2022-08-27T04:17:04.339Z,31.40
2022-08-27T04:19:33.491Z,23.17
2022-08-27T04:22:05.793Z,31.35
2022-08-27T04:24:36.235Z,27.88
2022-08-27T04:27:04.505Z,17.57
2022-08-27T04:29:31.771Z,20.23
2022-08-27T04:31:59.375Z,22.00
2022-08-27T04:34:26.270Z,22.25
2022-08-27T04:36:56.643Z,36.72
2022-08-27T04:39:25.935Z,25.85
2022-08-27T04:41:56.076Z,24.40
2022-08-27T04:44:23.887Z,32.15
2022-08-27T04:46:56.041Z,25.45
2022-08-27T04:49:23.559Z,26.13
2022-08-27T04:51:50.480Z,32.08
2022-08-27T04:54:17.323Z,22.25
2022-08-27T04:56:47.180Z,22.42
2022-08-27T04:59:14.328Z,16.33
2022-08-27T05:01:44.893Z,23.40
2022-08-27T05:04:13.775Z,24.50
2022-08-27T05:06:41.098Z,15.73
2022-08-27T05:09:08.158Z,18.55
2022-08-27T05:11:35.237Z,12.30
2022-08-27T05:14:04.329Z,20.63
2022-08-27T05:16:32.021Z,18.02
2022-08-27T05:18:59.906Z,19.20
2022-08-27T05:21:30.978Z,18.00
2022-08-27T05:24:00.005Z,20.05
2022-08-27T05:26:27.959Z,23.55
2022-08-27T05:28:55.395Z,14.55
2022-08-27T05:31:22.953Z,19.83
2022-08-27T05:33:49.864Z,21.17
2022-08-27T05:36:35.570Z,24.38
2022-08-27T05:39:05.723Z,25.02
2022-08-27T05:41:34.477Z,20.60
2022-08-27T05:44:30.240Z,27.48
2022-08-27T05:46:56.592Z,23.73
2022-08-27T05:49:23.400Z,23.77
2022-08-27T05:51:50.748Z,22.30
2022-08-27T05:54:19.449Z,27.83
2022-08-27T05:56:47.463Z,21.80
2022-08-27T05:59:34.780Z,23.00
2022-08-27T06:02:02.814Z,28.17
2022-08-27T06:04:30.081Z,17.95
2022-08-27T06:06:57.159Z,17.90
2022-08-27T06:09:28.772Z,22.58
2022-08-27T06:12:00.205Z,24.10
2022-08-27T06:14:27.965Z,25.20
2022-08-27T06:16:55.998Z,26.38
2022-08-27T06:19:23.351Z,23.00
2022-08-27T06:22:00.307Z,26.80
2022-08-27T06:24:28.868Z,38.47
2022-08-27T06:26:57.368Z,22.80
2022-08-27T06:29:25.073Z,29.83
2022-08-27T06:31:52.913Z,28.83
2022-08-27T06:34:19.703Z,45.88
2022-08-27T06:36:47.244Z,43.97
2022-08-27T06:39:15.512Z,39.53
2022-08-27T06:41:44.731Z,41.13
2022-08-27T06:44:14.932Z,44.55
2022-08-27T06:46:43.033Z,48.80
2022-08-27T06:49:10.552Z,48.50
2022-08-27T06:51:39.305Z,49.05
2022-08-27T06:54:08.836Z,44.95
2022-08-27T06:56:36.327Z,43.92
2022-08-27T06:59:11.903Z,34.33
2022-08-27T07:01:42.477Z,37.17
2022-08-27T07:04:13.993Z,58.97
2022-08-27T07:06:41.176Z,43.25
2022-08-27T07:09:09.367Z,43.93
2022-08-27T07:11:36.761Z,32.78
2022-08-27T07:14:04.119Z,44.58
2022-08-27T07:16:31.115Z,52.63
2022-08-27T07:19:02.426Z,50.97
2022-08-27T07:21:32.297Z,65.83
2022-08-27T07:24:03.516Z,67.55
2022-08-27T07:26:32.934Z,55.28
2022-08-27T07:29:00.277Z,32.60
2022-08-27T07:31:27.906Z,34.88
2022-08-27T07:33:54.974Z,30.70
2022-08-27T07:36:22.853Z,39.03
2022-08-27T07:38:59.209Z,27.17
2022-08-27T07:41:31.333Z,24.05
2022-08-27T07:44:21.032Z,26.85
2022-08-27T07:46:54.462Z,50.30
2022-08-27T07:49:22.543Z,33.53
2022-08-27T07:51:50.052Z,23.07
2022-08-27T07:54:17.195Z,30.60
2022-08-27T07:56:44.342Z,28.50
2022-08-27T07:59:26.283Z,35.10
2022-08-27T08:01:54.429Z,38.08
2022-08-27T08:04:22.671Z,27.05
2022-08-27T08:06:50.804Z,28.85
2022-08-27T08:09:17.691Z,26.05
2022-08-27T08:11:44.837Z,28.70
2022-08-27T08:14:11.762Z,19.25
2022-08-27T08:16:38.597Z,36.27
2022-08-27T08:19:05.481Z,20.30
2022-08-27T08:21:33.411Z,26.00
2022-08-27T08:24:02.002Z,19.85
2022-08-27T08:26:29.230Z,23.48
2022-08-27T08:28:56.132Z,25.95
2022-08-27T08:31:23.983Z,26.92
2022-08-27T08:33:51.019Z,21.98
2022-08-27T08:36:18.056Z,25.25
2022-08-27T08:38:47.254Z,35.38
2022-08-27T08:41:35.949Z,23.52
2022-08-27T08:44:31.861Z,22.85
2022-08-27T08:47:00.927Z,24.02
2022-08-27T08:49:44.858Z,29.05
2022-08-27T08:52:43.221Z,25.95
2022-08-27T08:55:17.455Z,29.83
2022-08-27T08:58:11.721Z,35.30
2022-08-27T09:00:42.034Z,28.80
2022-08-27T09:03:12.725Z,20.23
2022-08-27T09:05:49.287Z,29.10
2022-08-27T09:08:36.452Z,22.83
2022-08-27T09:11:14.267Z,23.73
2022-08-27T09:13:47.596Z,35.00
2022-08-27T09:16:14.579Z,24.85
2022-08-27T09:18:41.998Z,35.63
2022-08-27T09:21:27.799Z,29.45
2022-08-27T09:23:57.338Z,34.97
2022-08-27T09:26:27.932Z,45.40
2022-08-27T09:29:15.860Z,26.02
2022-08-27T09:31:54.271Z,32.50
2022-08-27T09:34:22.374Z,28.50
2022-08-27T09:36:54.433Z,24.00
2022-08-27T09:39:48.430Z,42.28
2022-08-27T09:42:37.502Z,41.90
2022-08-27T09:45:11.888Z,34.55
2022-08-27T09:47:54.518Z,48.40
2022-08-27T09:50:34.918Z,36.13
2022-08-27T09:53:01.816Z,35.72
2022-08-27T09:55:46.662Z,40.07
2022-08-27T09:58:25.739Z,35.42
2022-08-27T10:01:15.707Z,47.80
2022-08-27T10:03:43.414Z,40.23
2022-08-27T10:06:11.123Z,50.47
2022-08-27T10:08:41.927Z,57.95
2022-08-27T10:11:18.399Z,76.40
2022-08-27T10:13:52.134Z,56.08
2022-08-27T10:16:40.747Z,54.47
2022-08-27T10:19:25.700Z,43.65
2022-08-27T10:22:00.733Z,58.40
2022-08-27T10:24:40.170Z,42.03
2022-08-27T10:27:09.766Z,55.22
2022-08-27T10:30:02.683Z,53.40
2022-08-27T10:33:06.210Z,46.17
2022-08-27T10:35:46.847Z,40.92
2022-08-27T10:38:45.108Z,43.17
2022-08-27T10:41:29.045Z,48.67
2022-08-27T10:44:19.188Z,60.00
2022-08-27T10:47:14.079Z,63.85
2022-08-27T10:49:54.963Z,45.70
2022-08-27T10:52:39.722Z,57.08
2022-08-27T10:55:26.713Z,63.85
2022-08-27T10:58:08.675Z,48.45
2022-08-27T11:01:03.143Z,42.85
2022-08-27T11:03:54.504Z,61.35
2022-08-27T11:06:32.766Z,50.05
2022-08-27T11:09:07.795Z,49.53
2022-08-27T11:12:13.938Z,56.42
2022-08-27T11:14:54.368Z,44.58
2022-08-27T11:17:36.737Z,45.60
2022-08-27T11:20:12.466Z,60.38
2022-08-27T11:22:47.795Z,25.95
2022-08-27T11:25:52.532Z,35.72
2022-08-27T11:28:29.551Z,30.58
2022-08-27T11:31:03.681Z,32.70
2022-08-27T11:33:48.266Z,49.47
2022-08-27T11:37:11.891Z,56.72
2022-08-27T11:39:57.633Z,52.88
2022-08-27T11:42:48.153Z,54.85
2022-08-27T11:46:12.976Z,53.35
2022-08-27T11:48:55.546Z,49.25
2022-08-27T11:51:34.198Z,71.50
2022-08-27T11:54:07.378Z,68.65
2022-08-27T11:56:37.258Z,62.25
2022-08-27T11:59:23.035Z,66.40
2022-08-27T12:01:55.190Z,58.33
2022-08-27T12:04:36.230Z,53.83
2022-08-27T12:07:16.767Z,73.23
2022-08-27T12:09:52.350Z,71.70
2022-08-27T12:12:33.274Z,50.20
2022-08-27T12:15:10.375Z,63.13
2022-08-27T12:18:08.626Z,69.38
2022-08-27T12:21:07.632Z,52.27
2022-08-27T12:23:46.868Z,58.03
2022-08-27T12:26:25.643Z,40.38
2022-08-27T12:29:16.391Z,36.28
2022-08-27T12:31:48.546Z,49.07
2022-08-27T12:34:19.663Z,36.45
2022-08-27T12:36:53.422Z,39.50
2022-08-27T12:39:27.634Z,42.93
2022-08-27T12:41:55.837Z,38.45
2022-08-27T12:44:28.566Z,39.78
2022-08-27T12:47:03.256Z,43.05
2022-08-27T12:49:42.030Z,48.95
2022-08-27T12:52:33.193Z,53.30
2022-08-27T12:55:18.745Z,50.33
2022-08-27T12:58:17.511Z,59.83
2022-08-27T13:01:21.086Z,54.67
2022-08-27T13:03:54.199Z,55.58
2022-08-27T13:06:27.497Z,60.30
2022-08-27T13:08:57.446Z,71.43
2022-08-27T13:11:33.485Z,61.78
2022-08-27T13:14:21.508Z,67.43
2022-08-27T13:16:54.562Z,61.20
2022-08-27T13:19:33.448Z,51.78
2022-08-27T13:22:01.445Z,56.88
2022-08-27T13:24:49.308Z,51.38
2022-08-27T13:27:16.247Z,67.50
2022-08-27T13:29:43.894Z,59.33
2022-08-27T13:32:14.106Z,60.33
2022-08-27T13:34:41.702Z,46.33
2022-08-27T13:37:24.616Z,61.17
2022-08-27T13:39:57.614Z,50.70
2022-08-27T13:42:26.063Z,53.17
2022-08-27T13:44:56.435Z,76.40
2022-08-27T13:47:28.049Z,71.75
2022-08-27T13:50:13.139Z,58.60
2022-08-27T13:53:01.664Z,49.13
2022-08-27T13:55:30.126Z,66.53
2022-08-27T13:58:00.773Z,61.60
2022-08-27T14:00:33.334Z,58.15
2022-08-27T14:03:02.124Z,42.78
2022-08-27T14:05:33.784Z,68.05
2022-08-27T14:08:12.335Z,44.88
2022-08-27T14:10:43.850Z,62.80
2022-08-27T14:13:20.878Z,61.17
2022-08-27T14:15:54.326Z,67.07
2022-08-27T14:18:47.983Z,64.70
2022-08-27T14:21:13.590Z,65.82
2022-08-27T14:23:41.102Z,49.38
2022-08-27T14:26:08.643Z,63.92
2022-08-27T14:28:35.524Z,64.47
2022-08-27T14:31:02.691Z,72.72
2022-08-27T14:33:29.899Z,68.60
2022-08-27T14:35:56.662Z,62.15
2022-08-27T14:38:26.771Z,75.90
2022-08-27T14:40:54.678Z,53.40
2022-08-27T14:43:22.933Z,76.87
2022-08-27T14:45:51.795Z,61.60
2022-08-27T14:48:21.834Z,54.80
2022-08-27T14:50:56.599Z,35.30
2022-08-27T14:53:24.298Z,35.37
2022-08-27T14:55:52.190Z,42.30
2022-08-27T14:58:19.548Z,34.70
2022-08-27T15:00:46.822Z,38.27
2022-08-27T15:03:13.758Z,33.15
2022-08-27T15:05:40.667Z,63.13
2022-08-27T15:08:13.362Z,66.50
2022-08-27T15:10:40.665Z,68.80
2022-08-27T15:13:09.437Z,62.60
2022-08-27T15:15:36.299Z,64.43
2022-08-27T15:18:03.367Z,49.90
2022-08-27T15:20:30.538Z,56.83
2022-08-27T15:22:58.829Z,52.53
2022-08-27T15:25:25.934Z,71.57
2022-08-27T15:27:52.758Z,66.13
2022-08-27T15:30:26.149Z,49.65
2022-08-27T15:32:53.491Z,48.75
2022-08-27T15:35:25.823Z,54.55
2022-08-27T15:37:54.982Z,66.28
2022-08-27T15:40:24.114Z,68.38
2022-08-27T15:42:57.159Z,73.50
2022-08-27T15:45:25.714Z,68.22
2022-08-27T15:47:55.451Z,68.38
2022-08-27T15:50:22.450Z,59.20
2022-08-27T15:52:53.435Z,50.97
2022-08-27T15:55:23.730Z,73.40
2022-08-27T15:57:50.744Z,71.10
2022-08-27T16:00:20.180Z,48.75
2022-08-27T16:02:47.633Z,71.35
2022-08-27T16:05:16.730Z,61.55
2022-08-27T16:07:44.486Z,73.45
2022-08-27T16:10:13.347Z,52.42
2022-08-27T16:12:40.388Z,59.15
2022-08-27T16:15:07.945Z,50.60
2022-08-27T16:17:35.831Z,51.08
2022-08-27T16:20:03.938Z,50.13
2022-08-27T16:22:30.862Z,64.53
2022-08-27T16:24:57.780Z,56.33
2022-08-27T16:27:24.621Z,65.22
2022-08-27T16:29:52.450Z,64.00
2022-08-27T16:32:19.527Z,63.07
2022-08-27T16:34:55.369Z,55.00
2022-08-27T16:37:24.420Z,56.47
2022-08-27T16:39:51.492Z,59.80
2022-08-27T16:42:18.315Z,50.20
2022-08-27T16:44:45.559Z,64.25
2022-08-27T16:47:12.822Z,61.55
2022-08-27T16:49:57.999Z,56.37
2022-08-27T16:52:24.967Z,62.67
2022-08-27T16:54:52.215Z,69.18
2022-08-27T16:57:19.106Z,50.70
2022-08-27T16:59:45.984Z,52.72
2022-08-27T17:02:34.954Z,66.57
2022-08-27T17:05:23.805Z,58.75
2022-08-27T17:07:50.036Z,63.35
2022-08-27T17:10:20.067Z,61.63
2022-08-27T17:12:47.872Z,53.50
2022-08-27T17:15:16.516Z,70.07
2022-08-27T17:17:43.396Z,49.25
2022-08-27T17:20:10.841Z,48.00
2022-08-27T17:22:38.035Z,46.35
2022-08-27T17:25:05.857Z,50.85
2022-08-27T17:27:32.633Z,55.60
2022-08-27T17:29:59.688Z,46.90
2022-08-27T17:32:27.560Z,46.43
2022-08-27T17:34:54.556Z,53.83
2022-08-27T17:37:22.517Z,50.88
2022-08-27T17:39:49.335Z,66.03
2022-08-27T17:42:16.438Z,48.73
2022-08-27T17:44:43.230Z,49.17
2022-08-27T17:47:10.227Z,54.15
2022-08-27T17:49:37.504Z,50.10
2022-08-27T17:52:09.636Z,70.53
2022-08-27T17:54:43.232Z,52.60
2022-08-27T17:57:20.659Z,51.75
2022-08-27T17:59:48.345Z,66.30
2022-08-27T18:02:39.000Z,47.37
2022-08-27T18:05:10.161Z,60.03
2022-08-27T18:07:39.945Z,58.05
2022-08-27T18:10:08.555Z,64.93
2022-08-27T18:12:35.973Z,58.97
2022-08-27T18:15:02.673Z,50.05
2022-08-27T18:17:30.314Z,74.88
2022-08-27T18:19:59.220Z,64.13
2022-08-27T18:22:26.960Z,64.75
2022-08-27T18:24:54.418Z,56.92
2022-08-27T18:27:25.424Z,58.70
2022-08-27T18:29:52.275Z,69.77
2022-08-27T18:32:24.402Z,51.28
2022-08-27T18:34:51.707Z,45.35
2022-08-27T18:37:18.638Z,66.32
2022-08-27T18:39:45.987Z,53.25
2022-08-27T18:42:14.610Z,58.05
2022-08-27T18:44:45.614Z,60.87
2022-08-27T18:47:13.120Z,54.67
2022-08-27T18:49:40.179Z,53.67
2022-08-27T18:52:08.803Z,51.53
2022-08-27T18:54:35.642Z,53.90
2022-08-27T18:57:02.446Z,51.55
2022-08-27T18:59:29.298Z,51.38
2022-08-27T19:01:56.633Z,50.42
2022-08-27T19:04:24.458Z,55.58
2022-08-27T19:06:51.521Z,49.90
2022-08-27T19:09:19.079Z,32.03
2022-08-27T19:11:46.002Z,48.90
2022-08-27T19:14:13.265Z,47.00
2022-08-27T19:16:50.595Z,39.95
2022-08-27T19:19:18.197Z,40.28
2022-08-27T19:21:50.718Z,46.40
2022-08-27T19:24:19.810Z,41.10
2022-08-27T19:26:47.067Z,43.92
2022-08-27T19:29:13.971Z,46.58
2022-08-27T19:31:41.854Z,44.15
2022-08-27T19:34:09.086Z,45.50
2022-08-27T19:36:40.688Z,47.88
2022-08-27T19:39:10.002Z,42.13
2022-08-27T19:41:36.987Z,45.53
2022-08-27T19:44:04.259Z,53.22
2022-08-27T19:46:32.750Z,74.95
2022-08-27T19:48:59.663Z,61.83
2022-08-27T19:51:26.584Z,75.85
2022-08-27T19:53:53.436Z,72.10
2022-08-27T19:56:20.907Z,69.73
2022-08-27T19:58:47.743Z,71.75
2022-08-27T20:01:14.763Z,73.85
2022-08-27T20:03:42.257Z,71.20
2022-08-27T20:06:09.092Z,60.60
2022-08-27T20:08:35.871Z,69.97
2022-08-27T20:11:02.747Z,64.93
2022-08-27T20:13:33.122Z,73.73
2022-08-27T20:16:02.341Z,59.83
2022-08-27T20:18:29.891Z,74.63
2022-08-27T20:20:56.715Z,61.30
2022-08-27T20:23:23.583Z,71.00
2022-08-27T20:25:57.830Z,77.13
2022-08-27T20:28:39.238Z,65.80
2022-08-27T20:31:08.209Z,71.28
2022-08-27T20:33:35.132Z,57.80
2022-08-27T20:36:02.625Z,85.25
2022-08-27T20:38:30.503Z,74.28
2022-08-27T20:40:57.557Z,80.85
2022-08-27T20:43:24.333Z,77.13
2022-08-27T20:45:51.237Z,57.72
2022-08-27T20:48:18.886Z,67.43
2022-08-27T20:50:45.664Z,81.47
2022-08-27T20:53:12.880Z,75.30
2022-08-27T20:55:40.326Z,69.95
2022-08-27T20:58:26.554Z,61.40
2022-08-27T21:00:55.383Z,95.05
2022-08-27T21:03:23.435Z,67.20
2022-08-27T21:05:50.255Z,79.00
2022-08-27T21:08:19.435Z,87.70
2022-08-27T21:10:49.707Z,78.60
2022-08-27T21:13:17.635Z,60.10
2022-08-27T21:15:44.439Z,76.45
2022-08-27T21:18:11.373Z,69.65
2022-08-27T21:20:38.661Z,82.22
2022-08-27T21:23:05.524Z,87.63
2022-08-27T21:25:32.335Z,97.30
2022-08-27T21:28:00.308Z,83.72
2022-08-27T21:30:27.558Z,85.30
2022-08-27T21:32:55.874Z,73.65
2022-08-27T21:35:27.274Z,88.57
2022-08-27T21:37:56.177Z,56.25
2022-08-27T21:40:25.058Z,65.60
2022-08-27T21:42:53.731Z,46.97
2022-08-27T21:45:21.226Z,55.63
2022-08-27T21:47:48.227Z,65.78
2022-08-27T21:50:15.111Z,65.35
2022-08-27T21:52:42.049Z,65.53
2022-08-27T21:55:10.174Z,65.13
2022-08-27T21:57:37.066Z,55.92
2022-08-27T22:00:16.782Z,65.95
2022-08-27T22:02:43.607Z,75.15
2022-08-27T22:05:10.460Z,74.53
2022-08-27T22:07:37.470Z,62.50
2022-08-27T22:10:05.763Z,61.17
2022-08-27T22:12:32.727Z,69.10
2022-08-27T22:14:59.610Z,56.15
2022-08-27T22:17:26.630Z,69.15
2022-08-27T22:19:54.467Z,68.70
2022-08-27T22:22:21.323Z,57.60
2022-08-27T22:24:48.385Z,68.72
2022-08-27T22:27:15.318Z,61.23
2022-08-27T22:29:42.071Z,69.00
2022-08-27T22:32:08.927Z,65.30
2022-08-27T22:34:36.310Z,62.80
2022-08-27T22:37:04.360Z,76.68
2022-08-27T22:39:31.383Z,68.35
2022-08-27T22:41:58.463Z,89.63
2022-08-27T22:44:29.162Z,81.90
2022-08-27T22:46:56.576Z,94.63
2022-08-27T22:49:23.564Z,84.57
2022-08-27T22:51:50.391Z,99.13
2022-08-27T22:54:17.987Z,90.25
2022-08-27T22:56:44.771Z,80.97
2022-08-27T22:59:11.664Z,77.07
2022-08-27T23:01:38.781Z,85.75
2022-08-27T23:04:06.620Z,82.20
2022-08-27T23:06:34.440Z,88.88
2022-08-27T23:09:01.888Z,80.20
2022-08-27T23:11:31.650Z,82.00
2022-08-27T23:13:59.538Z,83.68
2022-08-27T23:16:27.099Z,93.90
2022-08-27T23:18:54.113Z,108.07
2022-08-27T23:21:21.428Z,99.53
2022-08-27T23:23:48.295Z,96.05
2022-08-27T23:26:33.788Z,76.70
2022-08-27T23:29:00.671Z,76.90
2022-08-27T23:31:27.592Z,80.63
2022-08-27T23:33:55.992Z,83.63
2022-08-27T23:36:23.131Z,86.40
2022-08-27T23:38:49.994Z,79.80
2022-08-27T23:41:16.873Z,74.93
2022-08-27T23:43:44.901Z,89.28
2022-08-27T23:46:12.029Z,72.30
2022-08-27T23:48:39.351Z,103.55
2022-08-27T23:51:07.565Z,99.07
2022-08-27T23:53:37.206Z,80.65
2022-08-27T23:56:04.862Z,113.18
2022-08-27T23:58:32.611Z,85.43
